Mustafa Unal

Olheiro-Chefe - Trabzonspor
3 Dez 2028
Domingo
Processo

Personalidade

Adaptabilidade (18) Ambição (1) Controvérsia (7) Lealdade (19) Pressão (19) Profissionalismo (2) Espírito Esportivo (19) Temperamento (20)

Perfil

Estilo de Treinamento Democrático
Licença Continental B
Determinação 14
Gestão de Pessoas 9
Motivação 12
Disciplina 13
Satisfação no Trabalho
100%
Fadiga
0%
Função Olheiro-Chefe
Salário 57.3K p/s
Contrato 14.03.2029

Desempenho

Comportamento Bom
Eficácia do Treinamento
45%
Desenvolvimento do Jogador
25%
Prevenção de Lesões
75%
Implementação Tática
60%

Eventos Recentes

Participou de uma reunião de recrutamento agora
Avaliou um jogador agora
Avaliou um jogador agora
Avaliou um jogador agora
Avaliou um jogador agora
Observou uma partida 7d atrás
Avaliou um jogador 7d atrás
Avaliou um jogador 7d atrás

Monitorando agora

277
Jogador Clube Status Habilidade Confiança Observado Última observação Último voto
Daniel Barrea Godoy Cruz Ativo 121 / 125 40% 10 01.12.2028 -
Alejandro Piedrahita Deportivo Pereira Ativo 135 / 130 40% 9 01.12.2028 -
Alejo Veliz Bahia Ativo 133 / 139 40% 6 01.12.2028 -
Brayan Moreno Santa Fe Ativo 125 / 119 40% 15 30.11.2028 -
Kelvin Flórez Deportes Tolima Ativo 122 / 123 40% 10 30.11.2028 -
Santiago Solari Racing Club Ativo 124 / 127 40% 4 30.11.2028 -
Nicolás Ferreira Wanderers Ativo 129 / 115 40% 6 29.11.2028 -
Agustín Rodríguez Juventud Ativo 123 / 126 40% 9 29.11.2028 -
Matías Arezo Penarol Ativo 131 / 123 40% 8 29.11.2028 -
Juan Hurtado Alianza Petrolera Ativo 127 / 127 40% 6 29.11.2028 -
Gonzalo Tapia São Paulo Ativo 133 / 133 40% 1 29.11.2028 -
Marcelo Ryan Vissel Kobe Ativo 133 / 134 40% 13 28.11.2028 -
Louis Munteanu Charlotte Football Club Ativo 141 / 126 40% 14 28.11.2028 -
Alejo Cruz Juventud Ativo 129 / 119 40% 6 28.11.2028 -
Kévin Denkey FC Cincinnati Ativo 132 / 136 40% 8 26.11.2028 -
Talles Magno New York City Ativo 144 / 129 40% 14 26.11.2028 -
Julian Herrera Cortulua Ativo 119 / 121 40% 8 25.11.2028 -
Ibrahim Fullah Charlton Athletic Ativo 127 / 128 40% 2 24.11.2028 -
Peyton Miller New England Revolution Ativo 116 / 115 40% 1 24.11.2028 -
Mateo Lizondo Colón Ativo 100 / 95 40% 1 24.11.2028 -
Cheikh Sabaly Vancouver Whitecaps Ativo 133 / 121 40% 8 23.11.2028 -
Alan Velasco Fortaleza Ativo 139 / 137 40% 6 23.11.2028 -
Mutsuki Kato Sanfrecce Hiroshima Ativo 135 / 126 40% 2 21.11.2028 -
Emmanuel Latte Lath Atlanta United FC Ativo 145 / 139 40% 1 21.11.2028 -
Ryan Kavuma-McQueen Accrington Stanley Ativo 126 / 130 40% 1 19.11.2028 -
Leonardo Campana New England Revolution Ativo 133 / 128 40% 6 17.11.2028 -
Gonzalo Plata Nacional Ativo 137 / 141 40% 8 16.11.2028 -
Emiliano Gómez Boston River Ativo 117 / 118 40% 7 15.11.2028 -
Norman Díaz Ankaragucu Ativo 112 / 112 52% 1 / 1m 15.11.2028 -
Bariş Kalaycı Fatih Karagumruk Ativo 116 / 119 42% 1 / 1m 15.11.2028 -
Tiago Çukur Fatih Karagumruk Ativo 121 / 121 30% 1 / 1m 15.11.2028 -
Ali Turap Bülbül Fatih Karagumruk Ativo 113 / 116 30% 1 / 1m 15.11.2028 -
Kamil Fidan Sivasspor Ativo 117 / 117 30% 1 / 1m 15.11.2028 -
Emre Gökay Sivasspor Ativo 113 / 116 30% 1 / 1m 15.11.2028 -
Luca Langoni Columbus Crew Ativo 139 / 136 40% 8 11.11.2028 -
Sebastian Olderheim Stromsgodset Ativo 104 / 115 40% 1 11.11.2028 -
Sayfiddin Sodikov Andijon Ativo 99 / 109 40% 1 11.11.2028 -
Harry Gray Harrogate Town Ativo 131 / 138 40% 1 11.11.2028 -
Liel Abada Inter Miami CF Ativo 148 / 143 40% 3 08.11.2028 -
Toni Fruk Talleres Ativo 142 / 141 40% 1 08.11.2028 -
Wessam Abou Ali Columbus Crew Ativo 138 / 138 40% 5 07.11.2028 -
Kerem Aktürkoğlu Atlético Mineiro Ativo 151 / 151 40% 2 29.10.2028 -
Lyle Foster Rosenborg Ativo 139 / 136 40% 2 24.10.2028 -
Ignacio Maestro Puch Independiente Ativo 124 / 133 40% 1 19.10.2028 -
Morgan Guilavogui Real Salt Lake Ativo 135 / 133 40% 2 13.10.2028 -
Endrick Boca Juniors Ativo 156 / 167 40% 2 01.10.2028 -
Bongokuhle Hlongwane LA Galaxy Ativo 137 / 126 40% 1 11.09.2028 -
Musa Barrow ES Setif Ativo 143 / 145 40% 4 25.08.2028 -
Mehdi Ghayedi Al Nasr Ativo 136 / 128 40% 2 21.08.2028 -
Andrea Pinamonti Lazio Ativo 146 / 146 40% 1 19.08.2028 -
Samuele Mulattieri Sassuolo Ativo 136 / 139 40% 1 19.08.2028 -
Jon Morcillo Almería Ativo 143 / 139 40% 3 15.08.2028 -
Álvaro García Castellón Ativo 129 / 131 40% 1 15.08.2028 -
Adam Jakobsen Castellón Ativo 126 / 126 40% 1 15.08.2028 -
Jackson Muleka Konyaspor Rejeitado 144 / 137 40% 3 11.08.2028 Rejeitar
Alemão Rayo Vallecano Ativo 134 / 135 40% 2 11.08.2028 -
Semih Kılıçsoy Besiktas Rejeitado 143 / 140 40% 1 11.08.2028 Mais informações
Toni Martínez Levante Ativo 144 / 145 40% 1 11.08.2028 -
Oh Hyeon-Gyu Besiktas Ativo 131 / 131 40% 17 09.08.2028 -
Chupete Málaga Ativo 143 / 141 40% 8 09.08.2028 -
Jayden Danns Bradford City Rejeitado 144 / 146 40% 7 09.08.2028 Rejeitar
Javi Puado Espanyol Ativo 155 / 153 40% 7 09.08.2028 -
Taiwo Awoniyi Middlesbrough Ativo 150 / 145 40% 3 09.08.2028 -
Ismaïla Sarr Crystal Palace Ativo 156 / 154 40% 1 09.08.2028 -
Rodrigo Muniz Fulham Ativo 148 / 146 40% 2 07.08.2028 -
Aral Şimşir Porto Rejeitado 147 / 142 40% 6 07.08.2028 Rejeitar
Tyrese Campbell Sheffield United Ativo 136 / 134 40% 11 06.08.2028 -
Leo Castledine Middlesbrough Ativo 140 / 142 40% 1 06.08.2028 -
Sam Nombe Milton Keynes Dons Ativo 118 / 118 40% 1 06.08.2028 -
Yousef Salech Cardiff City Ativo 140 / 133 40% 10 05.08.2028 -
Brandon Thomas-Asante Blackpool Ativo 129 / 128 40% 9 05.08.2028 -
Hugo Duro Valencia Ativo 147 / 146 40% 2 03.08.2028 -
Borja Mayoral Getafe Ativo 146 / 148 40% 2 03.08.2028 -
Malik Mothersille Stockport County Ativo 128 / 123 40% 10 01.08.2028 -
Tyreece Campbell Charlton Athletic Ativo 127 / 126 40% 12 01.08.2028 -
Sebastiano Esposito Cagliari Ativo 149 / 150 40% 1 01.08.2028 -
Zito Luvumbo Cagliari Ativo 141 / 133 40% 2 30.07.2028 -
Róbert Boženík Stoke City Ativo 134 / 137 40% 1 30.07.2028 -
Jorge De Frutos Rayo Vallecano Ativo 149 / 148 40% 3 29.07.2028 -
Umar Sadiq Valencia Ativo 141 / 143 40% 1 29.07.2028 -
Charlie Kelman Barnsley Ativo 120 / 118 40% 1 27.07.2028 -
Juanmi Latasa Valladolid Ativo 137 / 138 40% 3 25.07.2028 -
Justo Giani Umraniyespor Ativo 125 / 129 40% 6 24.07.2028 -
Jay Stansfield Birmingham Ativo 139 / 133 40% 1 23.07.2028 -
Sorba Thomas Stoke City Ativo 144 / 138 40% 3 17.07.2028 -
Milot Rashica Besiktas Ativo 140 / 139 40% 1 17.07.2028 -
Callum O'Hare Sheffield United Ativo 139 / 141 40% 7 11.07.2028 -
Miguel Rodríguez Alavés Ativo 138 / 143 40% 3 11.07.2028 -
Isaiah Jones Luton Town Ativo 136 / 128 40% 1 10.07.2028 -
Harry Wilson Leeds United Ativo 156 / 146 40% 1 10.07.2028 -
Matěj Jurásek Doncaster Rovers Ativo 127 / 128 40% 1 10.07.2028 -
Lucas Villarruel Konyaspor Rejeitado 111 / 110 79% 1 26.06.2028 Rejeitar
Jaidon Anthony Derby County Ativo 142 / 143 40% 1 26.06.2028 -
Alexandru Maxim Gaziantep Rejeitado 117 / 116 79% 1 19.06.2028 Rejeitar
Semih Kılıçsoy Besiktas Perdido 139 / 143 40% 6 12.06.2028 Mais informações
Jorge Salinas Racing Santander Ativo 134 / 138 40% 9 08.06.2028 -
Martim Cunha Porto Ativo 106 / 116 40% 4 08.06.2028 -
Talles Costa Alanyaspor Perdido 128 / 128 79% 1 07.06.2028 -
Giovanni Leoni Lincoln City Ativo 138 / 143 40% 6 06.06.2028 -
Trey Nyoni Rotherham United Ativo 141 / 145 40% 7 06.06.2028 -
Enis Bardhi Konyaspor Rejeitado 129 / 128 79% 1 03.06.2028 Rejeitar
Jackson Muleka Konyaspor Perdido 136 / 129 40% 16 31.05.2028 Rejeitar
Bruno Guimarães Real Madrid Ativo 171 / 173 40% 2 30.05.2028 -
Andrija Bulatović Chamois Niortais Ativo 129 / 136 40% 2 28.05.2028 -
Honest Ahanor Atalanta Ativo 137 / 141 40% 3 23.05.2028 -
Jorthy Mokio ADO Den Haag Ativo 134 / 135 40% 6 23.05.2028 -
William Osula Wrexham Ativo 141 / 133 40% 8 15.05.2028 -
Aaron Collins Milton Keynes Dons Ativo 124 / 120 40% 2 15.05.2028 -
Yassir Zabiri Stade Rennais Ativo 144 / 145 40% 3 10.05.2028 -
Pau Víctor Braga Ativo 150 / 142 40% 2 10.05.2028 -
Bernardo Lima Porto Ativo 111 / 116 40% 4 26.04.2028 -
Tyler Fletcher Rotherham United Ativo 110 / 118 40% 4 25.04.2028 -
Luis Suárez Sporting CP Ativo 160 / 156 40% 2 24.04.2028 -
Abel Ruiz Girona Ativo 146 / 145 40% 2 20.04.2028 -
Kang-In Lee Villarreal Ativo 167 / 160 40% 2 16.04.2028 -
Christian Kouamé Atlético Mineiro Ativo 129 / 128 40% 4 11.04.2028 -
Christos Mouzakitis Hull City Ativo 136 / 139 40% 3 08.04.2028 -
Marc Bernal Sevilla Ativo 150 / 158 40% 3 31.03.2028 -
Kauã Moraes Flamengo Ativo 126 / 138 40% 5 30.03.2028 -
Daniel Banjaqui Benfica Ativo 123 / 130 40% 5 30.03.2028 -
Lucas Høgsberg RC Strasbourg Ativo 146 / 145 40% 2 29.03.2028 -
Josh Acheampong Everton Ativo 143 / 143 40% 4 29.03.2028 -
Matias Siltanen Malmo FF Ativo 128 / 131 40% 3 23.03.2028 -
Josh Nichols Oldham Athletic Ativo 118 / 128 40% 2 22.03.2028 -
Héctor Fort Real Sociedad Ativo 139 / 147 40% 3 22.03.2028 -
Riquelme Thompson-Jones Accrington Stanley Ativo 106 / 112 40% 2 18.03.2028 -
Ayden Heaven Portsmouth Ativo 148 / 154 40% 2 16.03.2028 -
Izan Merino Málaga Ativo 127 / 133 40% 1 15.03.2028 -
Jhon Arias Palmeiras Ativo 150 / 144 40% 1 26.01.2028 -
Nuno Moreira Vasco da Gama Ativo 140 / 134 40% 1 26.01.2028 -
Karamba Gassama Gaziantep Ativo 114 / 117 42% 1 / 1m 19.01.2028 -
Erdem Çetinkaya Kasimpasa Ativo 109 / 109 30% 1 / 1m 19.01.2028 -
Allan Saint-Maximin Charlotte Football Club Ativo 148 / 143 40% 1 17.01.2028 -
Pedro de la Vega Columbus Crew Ativo 142 / 143 40% 1 17.01.2028 -
Mao Hosoya Santos Rejeitado 134 / 135 67% 1 01.01.2028 Rejeitar
Bitello Universidad de Chile Rejeitado 135 / 135 68% 1 01.01.2028 Rejeitar
Samuel Velásquez Atletico Nacional Ativo 127 / 119 40% 10 11.12.2027 -
Renan Lodi Atlético Mineiro Ativo 140 / 131 40% 3 11.12.2027 -
Victor Hernandez Santa Fe Ativo 120 / 128 40% 5 09.12.2027 -
Fernando Bersano Madryn Ativo 117 / 118 40% 3 09.12.2027 -
José Caldera Deportivo Cali Ativo 124 / 119 40% 3 07.12.2027 -
Bruno Leyes Godoy Cruz Ativo 121 / 123 40% 11 06.12.2027 -
Facundo Mura Inter Miami CF Ativo 130 / 125 40% 8 06.12.2027 -
Murat Celik Tskhinvali Ativo 120 / 123 40% 9 05.12.2027 -
Matheus Bidu Corinthians Ativo 131 / 125 40% 1 05.12.2027 -
Julián Palacios Envigado Ativo 119 / 125 40% 7 03.12.2027 -
Mateo Garavito Deportivo Pasto Ativo 128 / 128 40% 6 02.12.2027 -
Diego Hernández Aguilas Doradas Ativo 127 / 128 40% 7 01.12.2027 -
Azizbek To'lqinbekov Bunyodkor Ativo 92 / 106 40% 1 30.11.2027 -
Joaquín Varela Independiente Medellin Ativo 126 / 123 40% 11 29.11.2027 -
Andrés Herrera Columbus Crew Ativo 120 / 117 40% 3 28.11.2027 -
Nazareno Colombo Racing Club Ativo 129 / 123 40% 1 27.11.2027 -
Malte Amundsen Columbus Crew Ativo 122 / 123 40% 1 25.11.2027 -
Camilo Martinez Cortulua Ativo 131 / 122 40% 8 24.11.2027 -
Jan Carlos Ángulo Deportes Tolima Ativo 115 / 121 40% 6 23.11.2027 -
Jermein Peña Junior Ativo 128 / 117 40% 7 18.11.2027 -
Pablo Cardona Cortulua Ativo 125 / 110 40% 3 15.11.2027 -
José Ortiz Atletico Bucaramanga Ativo 129 / 114 40% 6 10.11.2027 -
Cristian Graciano Deportivo Pasto Ativo 112 / 115 40% 4 09.11.2027 -
Adrian Skogmar Malmo FF Ativo 120 / 129 40% 1 05.11.2027 -
Edvard Pettersen Sandefjord Ativo 101 / 113 40% 1 01.11.2027 -
Rui Modesto Vancouver Whitecaps Ativo 129 / 119 40% 1 22.10.2027 -
Emiliano Álvarez Progreso Ativo 124 / 125 40% 2 03.10.2027 -
Franco Díaz Temperley Ativo 131 / 126 40% 2 01.10.2027 -
Josen Escobar Patriotas Ativo 114 / 126 40% 1 22.09.2027 -
Anton Salétros Chicago Fire Ativo 130 / 134 40% 2 23.08.2027 -
Niklas Dorsch Toronto FC Ativo 129 / 127 40% 1 23.08.2027 -
Matthew Targett Hull City Ativo 134 / 131 40% 1 09.08.2027 -
Christopher Opéri Basaksehir Ativo 135 / 132 40% 3 02.08.2027 -
Azor Matusiwa Ipswich Town Ativo 138 / 141 40% 2 02.08.2027 -
Shea Charles Southampton Ativo 144 / 141 40% 1 02.08.2027 -
Samuel Edozie Southampton Ativo 135 / 133 40% 2 28.07.2027 -
John McGinn Aston Villa Ativo 152 / 149 40% 1 28.07.2027 -
Ali Ahmed Norwich City Ativo 127 / 131 40% 1 28.07.2027 -
Hidemasa Morita Hull City Ativo 141 / 147 40% 1 19.07.2027 -
Oladapo Afolayan Blackburn Rovers Ativo 131 / 128 40% 2 13.07.2027 -
Andre Brooks Sheffield United Ativo 128 / 134 40% 1 13.07.2027 -
Ianis Hagi Alanyaspor Rejeitado 132 / 128 40% 2 28.06.2027 Mais informações
Diogo Gonçalves Konyaspor Ativo 133 / 126 40% 1 22.06.2027 -
Václav Černý Besiktas Rejeitado 146 / 141 40% 3 14.06.2027 Rejeitar
Ryoya Morishita Blackburn Rovers Ativo 128 / 129 40% 1 03.06.2027 -
Yunus Akgün Galatasaray Ativo 140 / 140 40% 1 02.06.2027 -
Tatsuhiro Sakamoto Coventry City Ativo 131 / 128 40% 1 02.06.2027 -
Ilyas Ansah Hull City Ativo 131 / 135 40% 10 25.05.2027 -
Wilson Isidor Sunderland Ativo 137 / 135 40% 7 24.05.2027 -
Thiago Brentford Ativo 145 / 144 40% 1 23.05.2027 -
Bertuğ Yıldırım Basaksehir Ativo 128 / 127 40% 9 21.05.2027 -
Mohamed-Ali Cho Hull City Ativo 133 / 140 40% 13 20.05.2027 -
Nicolò Zaniolo Udinese Ativo 143 / 145 40% 6 16.05.2027 -
Lorent Tolaj Plymouth Argyle Ativo 120 / 116 40% 3 14.05.2027 -
Stiven Shpendi Empoli Ativo 125 / 121 40% 1 14.05.2027 -
Josh Coburn Millwall Ativo 122 / 119 40% 6 13.05.2027 -
Rocco Vata Watford Ativo 126 / 123 40% 8 11.05.2027 -
Marezi Portsmouth Ativo 121 / 122 40% 3 09.05.2027 -
Eddie Nketiah Crystal Palace Rejeitado 143 / 140 40% 6 03.05.2027 Rejeitar
Richard Koné Queens Park Rangers Ativo 123 / 126 40% 1 02.05.2027 -
Aune Heggebø West Bromwich Albion Ativo 127 / 131 40% 5 22.04.2027 -
Sam Greenwood Bristol City Ativo 126 / 122 40% 3 10.04.2027 -
Mateo Pellegrino Fiorentina Ativo 143 / 138 40% 1 25.03.2027 -
Fábio Carvalho Brentford Ativo 141 / 141 40% 4 13.03.2027 -
Mohammad Hosseini Malavan Ativo 121 / 120 40% 4 12.03.2027 -
Majid Moharrami Rah Ahan Ativo 109 / 114 40% 1 09.03.2027 -
Lorenzo Colombo Genoa Ativo 138 / 137 40% 1 09.03.2027 -
Patrick Agyemang Derby County Ativo 127 / 126 40% 1 11.02.2027 -
Lassina Traoré Shakhtar Ativo 128 / 120 40% 1 05.02.2027 -
Jørgen Strand Larsen Brighton Ativo 147 / 142 40% 1 02.02.2027 -
Joe Gelhardt Hull City Ativo 130 / 132 40% 1 01.02.2027 -
Gabriel Sara Galatasaray Ativo 145 / 143 40% 4 27.01.2027 -
Brooke Norton-Cuffy Hull City Ativo 135 / 139 40% 2 12.01.2027 -
Kenny Tete Fulham Ativo 147 / 138 40% 1 12.01.2027 -
Pedro Porro Tottenham Ativo 148 / 151 40% 1 12.01.2027 -
Florentino Luís Ipswich Town Ativo 134 / 136 40% 2 01.01.2027 -
Marvin Keller Chelsea Rejeitado 136 / 137 67% 1 01.01.2027 Rejeitar
Max Johnston Derby County Ativo 133 / 129 40% 1 30.12.2026 -
Jacques Ekomié Wrexham Ativo 135 / 127 40% 1 30.12.2026 -
Sindre Walle Egeli Udinese Ativo 122 / 133 40% 5 28.12.2026 -
Milan van Ewijk Coventry City Ativo 137 / 126 40% 2 25.12.2026 -
Luke McNally Bristol City Ativo 133 / 129 40% 1 25.12.2026 -
Aidan Morris Middlesbrough Ativo 126 / 128 40% 1 25.12.2026 -
Dara O'Shea Ipswich Town Ativo 132 / 136 40% 3 24.12.2026 -
Jacob Greaves Ipswich Town Ativo 131 / 138 40% 2 23.12.2026 -
Adam Randell Bristol City Ativo 122 / 129 40% 1 23.12.2026 -
Wilfried Singo Galatasaray Ativo 139 / 139 40% 4 21.12.2026 -
Anel Ahmedhodžić Burnley Ativo 130 / 136 40% 1 21.12.2026 -
Younes El Bahraoui Al-Taawoun Ativo 101 / 119 40% 5 19.12.2026 -
Lorenzo De Leo Renate Ativo 97 / 104 40% 1 19.12.2026 -
Will Lankshear Middlesbrough Ativo 118 / 127 40% 5 17.12.2026 -
Edmund Baidoo St. Gallen Ativo 125 / 124 40% 6 16.12.2026 -
Nicolas Madsen Queens Park Rangers Ativo 132 / 131 40% 1 15.12.2026 -
Dinis Rodrigues Napoli Ativo 106 / 113 40% 1 13.12.2026 -
Raoul Bellanova Atalanta Ativo 156 / 146 40% 1 11.12.2026 -
Keane Lewis-Potter Brentford Ativo 140 / 147 40% 1 11.12.2026 -
Luciano Inverso Betis Ativo 115 / 118 40% 4 09.12.2026 -
Ezekiel Kwame Alladoh Philadelphia Union Ativo 118 / 125 40% 3 07.12.2026 -
George Brown Sheffield Wednesday Ativo 105 / 101 40% 1 07.12.2026 -
Oliver Skipp Leicester City Ativo 135 / 126 40% 1 05.12.2026 -
Rubens Dinamo Moscow Ativo 126 / 130 40% 1 03.12.2026 -
Jalal Abdullai Molde Ativo 112 / 115 40% 3 29.11.2026 -
Matías Contrera Hrvatski Dragovoljac Ativo 102 / 101 40% 2 29.11.2026 -
Sam Amo-Ameyaw RC Strasbourg Ativo 120 / 133 40% 5 27.11.2026 -
Max Bird Birmingham Ativo 128 / 127 40% 1 27.11.2026 -
Bogdan Petrović TSC Ativo 99 / 113 40% 7 21.11.2026 -
Mihailo Ivanović Aston Villa Ativo 122 / 130 40% 1 21.11.2026 -
Alexander Lyng SonderjyskE Ativo 105 / 117 40% 5 15.11.2026 -
Mathys Tel Tottenham Ativo 148 / 149 40% 2 15.11.2026 -
Nikolay Zlatev Cherno More Ativo 101 / 102 40% 7 11.11.2026 -
Tiago Djaló Besiktas Ativo 139 / 128 40% 1 11.11.2026 -
Yacine Adli Al-Shabab Ativo 146 / 137 40% 1 04.11.2026 -
Maximo Ingravidi Colón Ativo 103 / 108 40% 3 02.11.2026 -
Gedson Fernandes Spartak Moscow Ativo 133 / 134 40% 3 24.10.2026 -
Diego Gómez Brighton Ativo 137 / 144 40% 1 24.10.2026 -
Thiago Ponce Rosario Central Ativo 88 / 109 40% 3 17.10.2026 -
Kings Kangwa Panathinaikos Ativo 129 / 133 40% 1 12.10.2026 -
Conrad Wallem Djurgarden Ativo 120 / 122 40% 1 12.10.2026 -
Gabriel Pereira FC Copenhagen Ativo 122 / 122 40% 1 12.10.2026 -
Thiago Perugini San Lorenzo Ativo 95 / 95 40% 2 08.10.2026 -
Gustavo Mantuan Zenit Ativo 130 / 129 40% 1 08.10.2026 -
Youssoufa Moukoko FC Copenhagen Ativo 127 / 131 40% 2 04.10.2026 -
Don-Angelo Konadu Ajax Ativo 105 / 117 40% 2 27.09.2026 -
Hojjat Ahmadi Esteghlal Khuzestan Ativo 89 / 95 40% 2 26.09.2026 -
Taiyo Koga Kashiwa Reysol Ativo 137 / 132 40% 1 26.09.2026 -
Lucas Sanabria LA Galaxy Ativo 133 / 137 40% 1 22.09.2026 -
Alexandr Siljanov Lokomotiv Moscow Ativo 122 / 125 40% 1 18.09.2026 -
Festy Ebosele Basaksehir Ativo 129 / 127 40% 1 18.09.2026 -
João Cancelo Spartak Moscow Ativo 147 / 146 40% 2 14.09.2026 -
Andrés Cubas Vancouver Whitecaps Ativo 126 / 128 40% 1 14.09.2026 -
Juan Manuel Sanabria Real Salt Lake Ativo 127 / 116 40% 1 13.09.2026 -
Cristian Roldan Seattle Sounders Ativo 123 / 122 40% 1 12.09.2026 -
Lucas Torreira Galatasaray Ativo 148 / 149 40% 1 10.09.2026 -
Lasse Berg Johnsen Sporting Kansas City Ativo 126 / 118 40% 1 10.09.2026 -
Amir Murillo Besiktas Rejeitado 136 / 139 72% 2 09.09.2026 Rejeitar
Anthony Smits AZ Ativo 101 / 114 40% 1 03.09.2026 -
Mikel Gogorza Brondby Ativo 120 / 134 40% 1 03.09.2026 -
Lautaro Giannetti Antalyaspor Rejeitado 111 / 119 72% 1 31.08.2026 Rejeitar
Eduard Löwen San Jose Earthquakes Ativo 120 / 129 40% 1 17.08.2026 -
Deniz Ertaş Konyaspor Rejeitado 112 / 129 72% 1 03.08.2026 Rejeitar
Miguel Almirón Atlanta United FC Ativo 141 / 128 40% 1 03.08.2026 -